createdAt,value
2022-11-14T00:01:47.603Z,0.97
2022-11-14T00:04:36.475Z,0.82
2022-11-14T00:07:24.911Z,0.68
2022-11-14T00:10:13.675Z,0.61
2022-11-14T00:13:02.394Z,0.52
2022-11-14T00:15:56.811Z,0.66
2022-11-14T00:18:45.564Z,0.71
2022-11-14T00:21:34.510Z,0.72
2022-11-14T00:24:23.734Z,0.70
2022-11-14T00:27:12.636Z,0.69
2022-11-14T00:30:01.359Z,0.60
2022-11-14T00:32:52.638Z,0.52
2022-11-14T00:35:41.419Z,0.38
2022-11-14T00:38:30.063Z,0.34
2022-11-14T00:41:19.241Z,0.24
2022-11-14T00:44:08.128Z,0.19
2022-11-14T00:46:56.603Z,0.37
2022-11-14T00:49:47.922Z,0.28
2022-11-14T00:52:36.474Z,0.16
2022-11-14T00:55:25.325Z,0.17
2022-11-14T00:58:14.127Z,0.12
2022-11-14T01:01:02.901Z,0.01
2022-11-14T01:03:52.439Z,-0.06
2022-11-14T01:06:43.536Z,0.05
2022-11-14T01:09:32.310Z,0.17
2022-11-14T01:12:21.315Z,0.09
2022-11-14T01:15:12.479Z,-0.03
2022-11-14T01:18:01.101Z,-0.09
2022-11-14T01:20:51.699Z,-0.10
2022-11-14T01:23:43.987Z,-0.06
2022-11-14T01:26:32.360Z,-0.15
2022-11-14T01:29:21.239Z,-0.30
2022-11-14T01:32:10.693Z,-0.33
2022-11-14T01:34:59.532Z,-0.35
2022-11-14T01:37:48.166Z,-0.38
2022-11-14T01:40:45.698Z,-0.23
2022-11-14T01:43:37.592Z,-0.05
2022-11-14T01:46:31.994Z,0.02
2022-11-14T01:49:24.621Z,-0.09
2022-11-14T01:52:18.824Z,-0.05
2022-11-14T01:55:12.433Z,-0.12
2022-11-14T01:58:04.218Z,0.03
2022-11-14T02:00:52.726Z,0.22
2022-11-14T02:03:45.887Z,0.32
2022-11-14T02:06:35.559Z,0.20
2022-11-14T02:09:25.173Z,0.14
2022-11-14T02:12:17.874Z,0.10
2022-11-14T02:15:12.024Z,0.11
2022-11-14T02:18:02.608Z,0.08
2022-11-14T02:20:53.737Z,0.01
2022-11-14T02:23:42.480Z,0.22
2022-11-14T02:26:36.472Z,0.43
2022-11-14T02:29:26.322Z,0.45
2022-11-14T02:32:14.897Z,0.49
2022-11-14T02:35:03.620Z,0.39
2022-11-14T02:37:54.853Z,0.38
2022-11-14T02:40:43.453Z,0.31
2022-11-14T02:43:32.220Z,0.30
2022-11-14T02:46:20.875Z,0.32
2022-11-14T02:49:09.508Z,0.21
2022-11-14T02:51:58.145Z,0.15
2022-11-14T02:54:54.239Z,0.15
2022-11-14T02:57:43.603Z,0.44
2022-11-14T03:00:32.314Z,0.40
2022-11-14T03:03:21.127Z,0.40
2022-11-14T03:06:10.055Z,0.24
2022-11-14T03:08:59.044Z,0.18
2022-11-14T03:11:50.867Z,0.40
2022-11-14T03:14:39.910Z,0.45
2022-11-14T03:17:28.295Z,0.58
2022-11-14T03:20:17.118Z,0.50
2022-11-14T03:23:06.557Z,0.23
2022-11-14T03:25:55.838Z,0.07
2022-11-14T03:28:47.054Z,-0.20
2022-11-14T03:31:35.939Z,-0.01
2022-11-14T03:34:24.643Z,-0.07
2022-11-14T03:37:13.871Z,0.04
2022-11-14T03:40:02.665Z,0.12
2022-11-14T03:42:51.359Z,0.01
2022-11-14T03:45:42.858Z,-0.14
2022-11-14T03:48:32.649Z,-0.01
2022-11-14T03:51:21.418Z,0.01
2022-11-14T03:54:10.607Z,-0.08
2022-11-14T03:56:59.466Z,-0.09
2022-11-14T03:59:48.049Z,0.06
2022-11-14T04:02:39.457Z,0.03
2022-11-14T04:05:28.621Z,0.01
2022-11-14T04:08:17.103Z,0.10
2022-11-14T04:11:06.006Z,-0.11
2022-11-14T04:13:55.115Z,-0.07
2022-11-14T04:16:43.813Z,0.00
2022-11-14T04:19:35.074Z,-0.09
2022-11-14T04:22:23.916Z,-0.25
2022-11-14T04:25:14.135Z,-0.13
2022-11-14T04:28:02.972Z,-0.20
2022-11-14T04:30:51.375Z,-0.19
2022-11-14T04:33:40.216Z,-0.13
2022-11-14T04:36:31.641Z,-0.24
2022-11-14T04:39:20.173Z,-0.29
2022-11-14T04:42:08.897Z,-0.12
2022-11-14T04:44:57.694Z,0.05
2022-11-14T04:47:47.185Z,0.07
2022-11-14T04:50:36.117Z,-0.03
2022-11-14T04:53:27.181Z,-0.06
2022-11-14T04:56:16.033Z,0.06
2022-11-14T04:59:05.334Z,0.31
2022-11-14T05:01:54.028Z,0.32
2022-11-14T05:04:44.443Z,0.10
2022-11-14T05:07:34.034Z,-0.09
2022-11-14T05:10:25.460Z,-0.27
2022-11-14T05:13:14.286Z,-0.38
2022-11-14T05:16:04.032Z,-0.27
2022-11-14T05:18:55.760Z,-0.34
2022-11-14T05:21:44.240Z,-0.37
2022-11-14T05:24:33.135Z,-0.29
2022-11-14T05:27:24.533Z,-0.25
2022-11-14T05:30:15.646Z,-0.40
2022-11-14T05:33:04.320Z,-0.64
2022-11-14T05:35:52.936Z,-0.76
2022-11-14T05:38:42.248Z,-0.68
2022-11-14T05:41:30.881Z,-0.51
2022-11-14T05:44:22.144Z,-0.50
2022-11-14T05:47:10.885Z,-0.59
2022-11-14T05:49:59.586Z,-0.50
2022-11-14T05:52:48.337Z,-0.50
2022-11-14T05:55:37.026Z,-0.44
2022-11-14T05:58:25.620Z,-0.35
2022-11-14T06:01:20.182Z,-0.25
2022-11-14T06:04:10.328Z,-0.18
2022-11-14T06:06:58.796Z,0.00
2022-11-14T06:09:47.400Z,0.03
2022-11-14T06:12:36.093Z,0.07
2022-11-14T06:15:25.124Z,0.09
2022-11-14T06:18:16.220Z,0.19
2022-11-14T06:21:07.598Z,0.22
2022-11-14T06:23:56.281Z,0.22
2022-11-14T06:26:44.975Z,0.25
2022-11-14T06:29:35.656Z,0.29
2022-11-14T06:32:24.340Z,0.31
2022-11-14T06:35:15.591Z,0.33
2022-11-14T06:38:04.157Z,0.34
2022-11-14T06:40:52.437Z,0.40
2022-11-14T06:43:42.886Z,0.37
2022-11-14T06:46:31.532Z,0.70
2022-11-14T06:49:20.265Z,0.86
2022-11-14T06:52:11.411Z,0.99
2022-11-14T06:55:00.373Z,1.10
2022-11-14T06:57:55.054Z,1.18
2022-11-14T07:00:43.906Z,1.20
2022-11-14T07:03:32.758Z,1.20
2022-11-14T07:06:24.573Z,1.24
2022-11-14T07:09:15.992Z,1.57
2022-11-14T07:12:04.948Z,1.64
2022-11-14T07:14:53.509Z,1.65
2022-11-14T07:17:42.155Z,1.50
2022-11-14T07:20:30.850Z,1.40
2022-11-14T07:23:22.836Z,1.28
2022-11-14T07:26:15.538Z,1.31
2022-11-14T07:29:05.375Z,1.53
2022-11-14T07:31:54.039Z,1.49
2022-11-14T07:34:42.786Z,1.46
2022-11-14T07:37:31.476Z,1.45
2022-11-14T07:40:20.639Z,1.60
2022-11-14T07:43:11.805Z,1.59
2022-11-14T07:46:02.749Z,1.74
2022-11-14T07:48:51.085Z,2.24
2022-11-14T07:51:40.080Z,2.77
2022-11-14T07:54:28.829Z,3.07
2022-11-14T07:57:17.235Z,3.01
2022-11-14T08:00:11.274Z,3.02
2022-11-14T08:03:00.685Z,3.06
2022-11-14T08:05:49.636Z,3.18
2022-11-14T08:08:39.296Z,3.19
2022-11-14T08:11:40.261Z,3.12
2022-11-14T08:14:28.995Z,2.95
2022-11-14T08:17:20.096Z,2.44
2022-11-14T08:20:12.095Z,2.53
2022-11-14T08:23:07.189Z,2.69
2022-11-14T08:25:56.216Z,2.77
2022-11-14T08:28:45.203Z,2.71
2022-11-14T08:31:34.125Z,2.64
2022-11-14T08:34:25.249Z,3.15
2022-11-14T08:37:14.235Z,3.34
2022-11-14T08:40:03.090Z,3.47
2022-11-14T08:42:51.946Z,3.58
2022-11-14T08:45:40.360Z,3.73
2022-11-14T08:48:29.309Z,3.84
2022-11-14T08:51:20.649Z,3.93
2022-11-14T08:54:09.401Z,3.76
2022-11-14T08:56:57.943Z,3.51
2022-11-14T08:59:46.852Z,3.73
2022-11-14T09:02:35.528Z,3.66
2022-11-14T09:05:24.181Z,3.55
2022-11-14T09:08:15.458Z,3.46
2022-11-14T09:11:08.409Z,3.49
2022-11-14T09:13:58.695Z,3.55
2022-11-14T09:16:47.122Z,3.28
2022-11-14T09:19:36.210Z,3.25
2022-11-14T09:22:24.916Z,3.48
2022-11-14T09:25:16.988Z,3.77
2022-11-14T09:28:09.364Z,3.88
2022-11-14T09:31:04.301Z,3.84
2022-11-14T09:33:52.900Z,3.88
2022-11-14T09:36:41.807Z,3.82
2022-11-14T09:39:30.220Z,4.02
2022-11-14T09:42:57.360Z,4.45
2022-11-14T09:45:53.724Z,4.69
2022-11-14T09:48:42.493Z,4.61
2022-11-14T09:51:36.123Z,4.80
2022-11-14T09:54:29.238Z,5.22
2022-11-14T09:57:20.785Z,5.48
2022-11-14T10:00:22.178Z,5.40
2022-11-14T10:03:19.378Z,5.45
2022-11-14T10:06:29.298Z,5.44
2022-11-14T10:09:42.498Z,5.17
2022-11-14T10:12:43.910Z,5.50
2022-11-14T10:15:49.460Z,6.01
2022-11-14T10:19:02.024Z,6.23
2022-11-14T10:22:12.584Z,6.32
2022-11-14T10:25:26.581Z,6.40
2022-11-14T10:28:42.804Z,6.75
2022-11-14T10:31:55.539Z,7.01
2022-11-14T10:34:54.266Z,7.30
2022-11-14T10:37:55.969Z,7.66
2022-11-14T10:40:50.230Z,7.63
2022-11-14T10:43:46.760Z,7.45
2022-11-14T10:46:45.539Z,7.49
2022-11-14T10:49:38.845Z,7.69
2022-11-14T10:52:41.589Z,7.87
2022-11-14T10:56:02.409Z,7.95
2022-11-14T10:58:48.308Z,7.99
2022-11-14T11:01:47.246Z,8.07
2022-11-14T11:04:37.949Z,7.97
2022-11-14T11:07:41.625Z,7.96
2022-11-14T11:10:42.618Z,8.15
2022-11-14T11:13:37.238Z,8.54
2022-11-14T11:16:28.290Z,9.30
2022-11-14T11:19:30.990Z,10.13
2022-11-14T11:22:37.661Z,10.51
2022-11-14T11:25:29.851Z,10.92
2022-11-14T11:28:21.188Z,11.55
2022-11-14T11:31:12.291Z,11.91
2022-11-14T11:34:06.746Z,11.95
2022-11-14T11:37:07.598Z,11.98
2022-11-14T11:40:00.198Z,12.04
2022-11-14T11:46:18.049Z,11.99
2022-11-14T11:49:16.857Z,12.08
2022-11-14T11:52:16.353Z,11.75
2022-11-14T11:55:19.554Z,11.76
2022-11-14T11:58:14.818Z,11.56
2022-11-14T12:01:03.610Z,11.40
2022-11-14T12:03:55.793Z,11.31
2022-11-14T12:06:57.770Z,11.17
2022-11-14T12:10:09.828Z,11.01
2022-11-14T12:13:50.470Z,10.99
2022-11-14T12:17:22.558Z,10.76
2022-11-14T12:20:41.938Z,10.89
2022-11-14T12:24:18.478Z,11.04
2022-11-14T12:27:40.838Z,11.05
2022-11-14T12:30:30.941Z,11.09
2022-11-14T12:33:28.459Z,11.33
2022-11-14T12:36:17.211Z,11.76
2022-11-14T12:39:06.755Z,12.30
2022-11-14T12:42:05.317Z,12.97
2022-11-14T12:44:56.592Z,13.07
2022-11-14T12:48:24.777Z,13.04
2022-11-14T12:51:53.314Z,12.85
2022-11-14T12:54:50.490Z,12.52
2022-11-14T12:57:52.574Z,12.34
2022-11-14T13:01:15.267Z,12.24
2022-11-14T13:04:25.895Z,12.35
2022-11-14T13:07:36.014Z,12.22
2022-11-14T13:10:34.275Z,12.41
2022-11-14T13:13:36.398Z,12.41
2022-11-14T13:16:46.813Z,12.44
2022-11-14T13:19:48.626Z,12.34
2022-11-14T13:22:43.470Z,12.30
2022-11-14T13:25:32.865Z,12.33
2022-11-14T13:28:51.469Z,12.34
2022-11-14T13:31:53.997Z,12.14
2022-11-14T13:34:52.597Z,12.27
2022-11-14T13:38:01.882Z,12.35
2022-11-14T13:41:04.883Z,12.36
2022-11-14T13:44:31.114Z,12.44
2022-11-14T13:47:46.420Z,12.45
2022-11-14T13:50:40.566Z,12.42
2022-11-14T13:53:33.747Z,12.46
2022-11-14T13:56:40.891Z,12.36
2022-11-14T14:00:06.460Z,12.41
2022-11-14T14:03:34.526Z,12.32
2022-11-14T14:06:43.368Z,12.28
2022-11-14T14:09:43.660Z,12.24
2022-11-14T14:13:00.023Z,12.36
2022-11-14T14:16:01.612Z,12.30
2022-11-14T14:19:11.432Z,12.32
2022-11-14T14:22:13.342Z,12.25
2022-11-14T14:25:16.466Z,12.27
2022-11-14T14:28:18.288Z,12.27
2022-11-14T14:31:19.938Z,12.11
2022-11-14T14:34:32.529Z,12.11
2022-11-14T14:37:24.668Z,12.16
2022-11-14T14:40:28.436Z,12.21
2022-11-14T14:43:31.491Z,12.27
2022-11-14T14:46:29.200Z,12.34
2022-11-14T14:49:24.574Z,12.39
2022-11-14T14:52:31.879Z,12.37
2022-11-14T14:55:27.468Z,12.26
2022-11-14T14:58:22.380Z,12.04
2022-11-14T15:01:17.728Z,11.83
2022-11-14T15:04:11.160Z,11.61
2022-11-14T15:07:00.347Z,11.54
2022-11-14T15:09:59.777Z,11.46
2022-11-14T15:12:49.716Z,11.30
2022-11-14T15:15:40.664Z,11.18
2022-11-14T15:18:34.399Z,11.16
2022-11-14T15:21:30.213Z,11.25
2022-11-14T15:24:21.983Z,11.30
2022-11-14T15:27:19.300Z,11.33
2022-11-14T15:30:23.108Z,11.29
2022-11-14T15:33:31.794Z,11.33
2022-11-14T15:36:20.591Z,11.34
2022-11-14T15:39:29.542Z,11.39
2022-11-14T15:42:30.892Z,11.40
2022-11-14T15:45:27.206Z,11.44
2022-11-14T15:48:20.929Z,11.41
2022-11-14T15:51:09.881Z,11.26
2022-11-14T15:53:58.496Z,11.15
2022-11-14T15:56:47.049Z,10.89
2022-11-14T15:59:38.329Z,10.55
2022-11-14T16:02:33.697Z,10.22
2022-11-14T16:05:30.425Z,9.94
2022-11-14T16:08:19.084Z,9.68
2022-11-14T16:11:07.840Z,9.40
2022-11-14T16:13:56.337Z,9.14
2022-11-14T16:16:47.704Z,8.92
2022-11-14T16:19:36.400Z,8.73
2022-11-14T16:22:24.924Z,8.58
2022-11-14T16:25:19.487Z,8.43
2022-11-14T16:28:08.287Z,8.31
2022-11-14T16:30:57.840Z,8.17
2022-11-14T16:33:49.088Z,8.12
2022-11-14T16:36:38.039Z,8.02
2022-11-14T16:39:26.610Z,7.92
2022-11-14T16:42:15.819Z,7.89
2022-11-14T16:45:05.096Z,7.79
2022-11-14T16:47:54.342Z,7.66
2022-11-14T16:50:45.402Z,7.55
2022-11-14T16:53:34.087Z,7.49
2022-11-14T16:56:22.632Z,7.38
2022-11-14T16:59:12.816Z,7.33
2022-11-14T17:02:01.918Z,7.26
2022-11-14T17:04:50.785Z,7.20
2022-11-14T17:07:42.108Z,7.22
2022-11-14T17:10:30.784Z,7.15
2022-11-14T17:13:24.239Z,7.10
2022-11-14T17:16:13.172Z,7.03
2022-11-14T17:19:02.096Z,6.93
2022-11-14T17:21:52.049Z,6.88
2022-11-14T17:24:44.031Z,6.82
2022-11-14T17:27:32.546Z,6.75
2022-11-14T17:30:21.811Z,6.70
2022-11-14T17:33:10.273Z,6.68
2022-11-14T17:35:59.043Z,6.69
2022-11-14T17:38:47.747Z,6.68
2022-11-14T17:41:39.072Z,6.71
2022-11-14T17:44:29.770Z,6.74
2022-11-14T17:47:18.631Z,6.78
2022-11-14T17:50:07.812Z,6.82
2022-11-14T17:52:56.500Z,6.94
2022-11-14T17:55:45.418Z,6.95
2022-11-14T17:58:36.825Z,6.99
2022-11-14T18:01:30.310Z,6.99
2022-11-14T18:04:19.430Z,7.06
2022-11-14T18:07:08.441Z,7.13
2022-11-14T18:09:57.589Z,7.20
2022-11-14T18:12:46.444Z,7.21
2022-11-14T18:15:41.940Z,7.23
2022-11-14T18:18:30.545Z,7.23
2022-11-14T18:21:22.922Z,7.23
2022-11-14T18:24:16.587Z,7.23
2022-11-14T18:27:05.363Z,7.20
2022-11-14T18:29:54.343Z,7.15
2022-11-14T18:32:45.588Z,7.21
2022-11-14T18:35:34.331Z,7.22
2022-11-14T18:38:22.810Z,7.29
2022-11-14T18:41:15.609Z,7.29
2022-11-14T18:44:05.376Z,7.35
2022-11-14T18:46:54.052Z,7.36
2022-11-14T18:49:45.262Z,7.34
2022-11-14T18:52:34.004Z,7.34
2022-11-14T18:55:22.920Z,7.33
2022-11-14T18:58:11.821Z,7.33
2022-11-14T19:01:00.695Z,7.29
2022-11-14T19:03:49.535Z,7.23
2022-11-14T19:06:43.777Z,7.21
2022-11-14T19:09:33.366Z,7.22
2022-11-14T19:12:23.522Z,7.21
2022-11-14T19:15:13.887Z,7.24
2022-11-14T19:18:02.684Z,7.09
2022-11-14T19:21:00.354Z,7.12
2022-11-14T19:23:51.454Z,7.09
2022-11-14T19:26:40.024Z,7.06
2022-11-14T19:29:28.784Z,7.04
2022-11-14T19:32:17.392Z,7.00
2022-11-14T19:35:06.352Z,6.89
2022-11-14T19:37:54.936Z,6.85
2022-11-14T19:40:50.892Z,6.82
2022-11-14T19:43:41.262Z,6.72
2022-11-14T19:46:30.393Z,6.68
2022-11-14T19:49:19.395Z,6.60
2022-11-14T19:52:08.418Z,6.54
2022-11-14T19:54:57.188Z,6.42
2022-11-14T19:57:48.601Z,6.32
2022-11-14T20:00:37.937Z,6.20
2022-11-14T20:03:26.641Z,6.14
2022-11-14T20:06:22.145Z,6.07
2022-11-14T20:09:13.600Z,5.98
2022-11-14T20:12:02.013Z,5.98
2022-11-14T20:14:53.217Z,5.91
2022-11-14T20:17:41.853Z,5.86
2022-11-14T20:20:30.522Z,5.80
2022-11-14T20:23:19.348Z,5.73
2022-11-14T20:26:11.379Z,5.66
2022-11-14T20:29:01.829Z,5.68
2022-11-14T20:31:53.168Z,5.72
2022-11-14T20:34:41.794Z,5.69
2022-11-14T20:37:30.663Z,5.67
2022-11-14T20:40:20.162Z,5.67
2022-11-14T20:43:09.102Z,5.68
2022-11-14T20:45:59.711Z,5.71
2022-11-14T20:48:52.568Z,5.79
2022-11-14T20:51:41.589Z,5.88
2022-11-14T20:54:30.328Z,5.95
2022-11-14T20:57:18.621Z,6.08
2022-11-14T21:00:08.603Z,6.17
2022-11-14T21:02:57.111Z,6.20
2022-11-14T21:05:49.175Z,6.25
2022-11-14T21:08:39.791Z,6.31
2022-11-14T21:11:28.534Z,6.42
2022-11-14T21:14:17.500Z,6.58
2022-11-14T21:17:06.143Z,6.71
2022-11-14T21:19:54.796Z,6.88
2022-11-14T21:22:45.892Z,6.99
2022-11-14T21:25:35.490Z,7.11
2022-11-14T21:28:24.307Z,7.22
2022-11-14T21:31:18.508Z,7.22
2022-11-14T21:34:10.023Z,7.29
2022-11-14T21:36:59.782Z,7.27
2022-11-14T21:39:51.150Z,7.29
2022-11-14T21:42:39.858Z,7.21
2022-11-14T21:45:28.352Z,7.25
2022-11-14T21:48:16.903Z,7.18
2022-11-14T21:51:07.436Z,7.06
2022-11-14T21:53:58.715Z,6.98
2022-11-14T21:56:49.953Z,6.98
2022-11-14T21:59:38.741Z,6.92
2022-11-14T22:02:39.605Z,6.87
2022-11-14T22:05:28.133Z,6.76
2022-11-14T22:08:18.370Z,6.68
2022-11-14T22:11:07.017Z,6.60
2022-11-14T22:13:58.678Z,6.53
2022-11-14T22:16:47.385Z,6.46
2022-11-14T22:19:36.077Z,6.38
2022-11-14T22:22:24.703Z,6.33
2022-11-14T22:25:13.736Z,6.28
2022-11-14T22:28:02.200Z,6.25
2022-11-14T22:31:08.165Z,6.19
2022-11-14T22:33:59.760Z,6.29
2022-11-14T22:36:48.255Z,6.37
2022-11-14T22:39:36.869Z,6.28
2022-11-14T22:42:25.289Z,6.20
2022-11-14T22:45:14.428Z,6.38
2022-11-14T22:48:06.111Z,6.26
2022-11-14T22:51:03.373Z,6.16
2022-11-14T22:53:54.254Z,6.17
2022-11-14T22:56:42.817Z,6.19
2022-11-14T22:59:31.649Z,6.23
2022-11-14T23:02:20.338Z,6.26
2022-11-14T23:05:12.346Z,6.31
2022-11-14T23:08:00.834Z,6.42
2022-11-14T23:10:50.611Z,6.48
2022-11-14T23:13:44.227Z,6.48
2022-11-14T23:16:36.265Z,6.52
2022-11-14T23:19:25.485Z,6.62
2022-11-14T23:22:16.853Z,6.73
2022-11-14T23:25:05.686Z,6.88
2022-11-14T23:27:54.655Z,6.94
2022-11-14T23:30:43.536Z,7.22
2022-11-14T23:33:33.438Z,7.53
2022-11-14T23:36:22.998Z,7.45
2022-11-14T23:39:14.207Z,7.75
2022-11-14T23:42:02.671Z,7.94
2022-11-14T23:44:51.385Z,7.98
2022-11-14T23:47:39.826Z,7.95
2022-11-14T23:50:28.561Z,8.01
2022-11-14T23:53:17.129Z,7.98
2022-11-14T23:56:09.250Z,7.96
2022-11-14T23:58:57.909Z,7.89
